createdAt,value
2018-07-19T00:02:37.011Z,61.20
2018-07-19T00:05:18.120Z,61.30
2018-07-19T00:07:59.144Z,61.40
2018-07-19T00:10:40.248Z,61.50
2018-07-19T00:13:21.766Z,61.50
2018-07-19T00:16:02.971Z,61.70
2018-07-19T00:18:44.045Z,62.10
2018-07-19T00:21:25.442Z,62.20
2018-07-19T00:24:05.927Z,62.50
2018-07-19T00:26:47.016Z,63.30
2018-07-19T00:29:27.526Z,62.80
2018-07-19T00:32:09.290Z,63.20
2018-07-19T00:34:49.953Z,63.20
2018-07-19T00:37:30.797Z,63.70
2018-07-19T00:40:11.975Z,63.30
2018-07-19T00:42:52.807Z,63.30
2018-07-19T00:45:33.785Z,63.50
2018-07-19T00:48:15.489Z,63.40
2018-07-19T00:50:57.571Z,63.40
2018-07-19T00:53:38.369Z,63.30
2018-07-19T00:56:19.439Z,63.50
2018-07-19T00:59:01.004Z,63.50
2018-07-19T01:01:41.762Z,63.80
2018-07-19T01:04:23.019Z,63.30
2018-07-19T01:07:04.655Z,63.50
2018-07-19T01:09:45.688Z,63.90
2018-07-19T01:12:26.492Z,63.90
2018-07-19T01:15:07.139Z,64.00
2018-07-19T01:17:47.899Z,63.80
2018-07-19T01:23:09.191Z,64.40
2018-07-19T01:25:50.524Z,64.50
2018-07-19T01:28:31.513Z,64.70
2018-07-19T01:31:12.504Z,65.90
2018-07-19T01:33:53.296Z,65.50
2018-07-19T01:36:34.273Z,65.40
2018-07-19T01:39:15.221Z,65.70
2018-07-19T01:42:30.202Z,66.30
2018-07-19T01:45:11.952Z,66.20
2018-07-19T01:47:52.959Z,66.40
2018-07-19T01:50:33.907Z,66.90
2018-07-19T01:55:55.340Z,67.20
2018-07-19T01:58:36.055Z,67.10
2018-07-19T02:01:17.836Z,67.40
2018-07-19T02:03:59.184Z,67.20
2018-07-19T02:06:40.500Z,67.50
2018-07-19T02:09:22.292Z,68.00
2018-07-19T02:12:03.512Z,68.00
2018-07-19T02:14:44.649Z,68.40
2018-07-19T02:17:26.073Z,68.50
2018-07-19T02:20:06.744Z,68.80
2018-07-19T02:22:48.275Z,68.90
2018-07-19T02:25:29.393Z,69.10
2018-07-19T02:28:09.881Z,69.30
2018-07-19T02:30:51.017Z,69.50
2018-07-19T02:33:32.099Z,69.80
2018-07-19T02:36:12.493Z,70.50
2018-07-19T02:38:53.330Z,70.50
2018-07-19T02:41:33.896Z,70.70
2018-07-19T02:44:15.050Z,70.70
2018-07-19T02:46:55.963Z,70.80
2018-07-19T02:49:37.089Z,70.90
2018-07-19T02:52:18.073Z,71.20
2018-07-19T02:57:39.713Z,71.60
2018-07-19T03:00:20.747Z,72.10
2018-07-19T03:03:01.804Z,72.00
2018-07-19T03:05:42.777Z,72.60
2018-07-19T03:08:23.906Z,72.70
2018-07-19T03:11:04.638Z,72.70
2018-07-19T03:13:45.897Z,72.70
2018-07-19T03:16:26.480Z,72.90
2018-07-19T03:19:07.147Z,73.20
2018-07-19T03:21:47.976Z,73.10
2018-07-19T03:24:29.569Z,73.30
2018-07-19T03:27:10.660Z,73.50
2018-07-19T03:29:51.356Z,73.70
2018-07-19T03:32:31.973Z,73.70
2018-07-19T03:35:13.317Z,73.70
2018-07-19T03:37:54.312Z,74.30
2018-07-19T03:40:35.258Z,74.30
2018-07-19T03:43:16.337Z,74.00
2018-07-19T03:45:57.503Z,74.20
2018-07-19T03:48:38.587Z,74.80
2018-07-19T03:51:19.206Z,74.50
2018-07-19T03:53:59.972Z,75.00
2018-07-19T03:59:21.161Z,75.80
2018-07-19T04:02:01.932Z,75.60
2018-07-19T04:04:43.442Z,75.40
2018-07-19T04:07:24.315Z,75.70
2018-07-19T04:10:05.219Z,75.80
2018-07-19T04:15:26.462Z,75.80
2018-07-19T04:18:07.526Z,75.50
2018-07-19T04:20:48.275Z,75.70
2018-07-19T04:23:29.363Z,75.60
2018-07-19T04:26:10.313Z,75.70
2018-07-19T04:28:51.003Z,75.70
2018-07-19T04:31:31.944Z,75.90
2018-07-19T04:34:12.545Z,76.00
2018-07-19T04:36:53.607Z,76.10
2018-07-19T04:39:34.388Z,76.20
2018-07-19T04:42:15.165Z,76.80
2018-07-19T04:44:56.287Z,76.00
2018-07-19T04:47:37.272Z,76.40
2018-07-19T04:50:18.049Z,76.30
2018-07-19T04:52:58.405Z,76.30
2018-07-19T04:55:39.409Z,76.30
2018-07-19T04:58:20.083Z,76.20
2018-07-19T05:01:01.388Z,75.70
2018-07-19T05:03:41.922Z,75.90
2018-07-19T05:06:22.568Z,75.30
2018-07-19T05:09:04.835Z,74.40
2018-07-19T05:11:45.809Z,74.10
2018-07-19T05:14:26.885Z,74.20
2018-07-19T05:17:07.714Z,73.70
2018-07-19T05:19:48.791Z,73.60
2018-07-19T05:22:31.099Z,72.70
2018-07-19T05:25:11.652Z,71.80
2018-07-19T05:27:52.840Z,70.00
2018-07-19T05:30:33.792Z,68.90
2018-07-19T05:35:56.050Z,68.20
2018-07-19T05:38:36.709Z,68.60
2018-07-19T05:41:17.581Z,67.30
2018-07-19T05:43:58.615Z,65.80
2018-07-19T05:46:39.912Z,67.70
2018-07-19T05:49:20.740Z,69.20
2018-07-19T05:52:01.657Z,70.40
2018-07-19T05:54:42.654Z,70.80
2018-07-19T05:57:23.523Z,71.30
2018-07-19T06:00:05.037Z,70.70
2018-07-19T06:02:46.108Z,70.00
2018-07-19T06:05:26.888Z,69.70
2018-07-19T06:10:50.006Z,71.20
2018-07-19T06:13:31.028Z,71.60
2018-07-19T06:16:11.716Z,71.20
2018-07-19T06:18:53.175Z,70.50
2018-07-19T06:21:34.463Z,70.50
2018-07-19T06:24:15.606Z,71.20
2018-07-19T06:26:56.711Z,70.30
2018-07-19T06:29:37.938Z,68.60
2018-07-19T06:32:18.558Z,69.70
2018-07-19T06:34:59.336Z,69.70
2018-07-19T06:37:40.023Z,69.60
2018-07-19T06:40:21.348Z,69.80
2018-07-19T06:43:02.709Z,69.20
2018-07-19T06:45:43.832Z,69.70
2018-07-19T06:48:24.866Z,69.80
2018-07-19T06:51:06.316Z,69.00
2018-07-19T06:53:46.921Z,68.70
2018-07-19T06:56:27.572Z,68.20
2018-07-19T06:59:08.826Z,68.20
2018-07-19T07:01:50.045Z,68.10
2018-07-19T07:04:31.934Z,67.40
2018-07-19T07:07:12.987Z,68.30
2018-07-19T07:12:34.908Z,67.80
2018-07-19T07:15:15.901Z,67.10
2018-07-19T07:17:56.963Z,67.50
2018-07-19T07:20:41.980Z,67.80
2018-07-19T07:23:23.260Z,66.00
2018-07-19T07:26:04.655Z,65.20
2018-07-19T07:28:45.627Z,65.10
2018-07-19T07:31:26.873Z,65.50
2018-07-19T07:34:07.883Z,65.30
2018-07-19T07:36:48.636Z,65.00
2018-07-19T07:42:09.886Z,64.50
2018-07-19T07:44:51.169Z,63.90
2018-07-19T07:47:32.299Z,62.40
2018-07-19T07:50:13.170Z,62.60
2018-07-19T07:52:54.500Z,63.00
2018-07-19T07:55:35.148Z,61.20
2018-07-19T07:58:16.341Z,61.10
2018-07-19T08:00:57.405Z,60.50
2018-07-19T08:03:37.964Z,59.40
2018-07-19T08:06:19.056Z,58.30
2018-07-19T08:09:00.222Z,55.70
2018-07-19T08:11:41.286Z,52.10
2018-07-19T08:17:02.645Z,45.20
2018-07-19T08:19:43.616Z,45.00
2018-07-19T08:22:24.529Z,43.30
2018-07-19T08:25:05.274Z,44.20
2018-07-19T08:27:46.359Z,42.60
2018-07-19T08:33:07.281Z,42.90
2018-07-19T08:35:49.196Z,41.10
2018-07-19T08:38:30.439Z,38.70
2018-07-19T08:41:11.561Z,37.90
2018-07-19T08:43:52.971Z,37.40
2018-07-19T08:46:34.457Z,37.50
2018-07-19T08:49:15.181Z,36.90
2018-07-19T08:51:56.166Z,36.50
2018-07-19T08:54:36.955Z,37.00
2018-07-19T08:57:18.894Z,36.90
2018-07-19T08:59:59.793Z,38.70
2018-07-19T09:02:40.499Z,38.10
2018-07-19T09:05:20.876Z,39.20
2018-07-19T09:08:01.861Z,40.80
2018-07-19T09:10:42.464Z,40.70
2018-07-19T09:13:23.054Z,43.30
2018-07-19T09:16:04.228Z,43.50
2018-07-19T09:18:44.743Z,40.70
2018-07-19T09:21:26.268Z,41.70
2018-07-19T09:24:07.116Z,43.00
2018-07-19T09:26:48.161Z,43.80
2018-07-19T09:29:29.251Z,44.80
2018-07-19T09:32:10.545Z,47.00
2018-07-19T09:34:51.718Z,48.90
2018-07-19T09:37:33.576Z,48.60
2018-07-19T09:40:14.954Z,46.30
2018-07-19T09:45:37.262Z,47.30
2018-07-19T09:48:18.133Z,48.80
2018-07-19T09:50:59.340Z,47.10
2018-07-19T09:53:40.513Z,45.40
2018-07-19T09:56:21.312Z,41.10
2018-07-19T09:59:03.150Z,41.00
2018-07-19T10:01:44.382Z,42.10
2018-07-19T10:04:25.337Z,42.40
2018-07-19T10:07:06.610Z,40.00
2018-07-19T10:09:48.029Z,37.50
2018-07-19T10:12:29.205Z,37.70
2018-07-19T10:15:09.705Z,38.80
2018-07-19T10:17:50.356Z,37.70
2018-07-19T10:20:31.752Z,36.80
2018-07-19T10:23:12.877Z,36.80
2018-07-19T10:25:54.371Z,39.60
2018-07-19T10:28:35.688Z,39.40
2018-07-19T10:31:16.429Z,37.20
2018-07-19T10:33:57.452Z,35.80
2018-07-19T10:36:38.976Z,35.90
2018-07-19T10:39:20.038Z,33.60
2018-07-19T10:42:01.214Z,33.60
2018-07-19T10:44:42.158Z,33.60
2018-07-19T10:47:23.590Z,35.30
2018-07-19T10:50:04.526Z,34.90
2018-07-19T10:52:45.600Z,33.10
2018-07-19T10:55:26.868Z,33.90
2018-07-19T10:58:07.849Z,33.40
2018-07-19T11:00:48.452Z,34.00
2018-07-19T11:03:29.170Z,33.00
2018-07-19T11:06:10.573Z,32.10
2018-07-19T11:08:51.866Z,34.50
2018-07-19T11:11:32.356Z,38.00
2018-07-19T11:14:12.807Z,36.90
2018-07-19T11:16:53.501Z,36.50
2018-07-19T11:19:34.253Z,36.50
2018-07-19T11:22:15.012Z,35.30
2018-07-19T11:24:55.467Z,35.60
2018-07-19T11:27:36.364Z,33.70
2018-07-19T11:30:17.636Z,34.90
2018-07-19T11:32:58.912Z,35.30
2018-07-19T11:35:39.633Z,33.40
2018-07-19T11:38:20.207Z,32.50
2018-07-19T11:41:00.697Z,32.90
2018-07-19T11:43:41.560Z,34.10
2018-07-19T11:46:22.635Z,33.70
2018-07-19T11:49:03.232Z,34.30
2018-07-19T11:51:44.231Z,33.00
2018-07-19T11:54:25.074Z,31.70
2018-07-19T11:57:06.125Z,32.00
2018-07-19T11:59:46.688Z,34.70
2018-07-19T12:02:27.451Z,32.50
2018-07-19T12:05:08.132Z,32.50
2018-07-19T12:07:49.065Z,31.20
2018-07-19T12:10:29.860Z,30.90
2018-07-19T12:13:10.816Z,33.60
2018-07-19T12:15:51.404Z,35.10
2018-07-19T12:18:32.315Z,35.70
2018-07-19T12:21:12.749Z,33.50
2018-07-19T12:23:53.662Z,33.80
2018-07-19T12:26:34.499Z,32.80
2018-07-19T12:29:14.993Z,31.60
2018-07-19T12:31:55.837Z,30.20
2018-07-19T12:34:36.815Z,29.90
2018-07-19T12:37:17.720Z,30.70
2018-07-19T12:39:58.706Z,32.30
2018-07-19T12:42:39.537Z,33.50
2018-07-19T12:45:21.120Z,34.00
2018-07-19T12:48:01.525Z,34.60
2018-07-19T12:50:42.463Z,32.50
2018-07-19T12:53:23.302Z,31.10
2018-07-19T12:56:04.032Z,31.10
2018-07-19T12:58:44.552Z,30.40
2018-07-19T13:01:25.574Z,30.90
2018-07-19T13:04:07.200Z,31.40
2018-07-19T13:06:47.753Z,31.10
2018-07-19T13:09:29.059Z,29.40
2018-07-19T13:12:09.528Z,28.60
2018-07-19T13:14:50.716Z,30.00
2018-07-19T13:17:31.670Z,30.40
2018-07-19T13:20:12.796Z,30.90
2018-07-19T13:22:53.897Z,31.70
2018-07-19T13:25:34.689Z,36.50
2018-07-19T13:28:15.664Z,35.30
2018-07-19T13:30:56.678Z,34.10
2018-07-19T13:33:37.525Z,34.80
2018-07-19T13:38:59.103Z,39.90
2018-07-19T13:41:39.699Z,40.50
2018-07-19T13:44:20.339Z,39.50
2018-07-19T13:47:01.340Z,39.60
2018-07-19T13:49:41.892Z,39.60
2018-07-19T13:52:38.415Z,42.30
2018-07-19T13:55:19.500Z,43.80
2018-07-19T13:58:00.556Z,45.50
2018-07-19T14:00:41.210Z,47.30
2018-07-19T14:03:22.032Z,47.70
2018-07-19T14:06:03.078Z,45.90
2018-07-19T14:08:44.080Z,45.00
2018-07-19T14:11:24.944Z,43.70
2018-07-19T14:14:05.333Z,44.50
2018-07-19T14:16:46.132Z,43.50
2018-07-19T14:19:26.948Z,42.50
2018-07-19T14:22:07.748Z,42.70
2018-07-19T14:24:48.702Z,43.60
2018-07-19T14:27:29.640Z,45.60
2018-07-19T14:30:10.615Z,46.00
2018-07-19T14:32:51.525Z,45.20
2018-07-19T14:35:32.230Z,45.20
2018-07-19T14:38:13.954Z,44.10
2018-07-19T14:40:54.869Z,43.60
2018-07-19T14:43:35.526Z,43.50
2018-07-19T14:46:16.776Z,43.50
2018-07-19T14:48:57.617Z,43.30
2018-07-19T14:51:38.498Z,43.90
2018-07-19T14:54:19.741Z,44.10
2018-07-19T14:57:00.483Z,44.40
2018-07-19T14:59:41.481Z,44.70
2018-07-19T15:02:22.188Z,44.70
2018-07-19T15:05:03.221Z,46.10
2018-07-19T15:07:44.069Z,45.70
2018-07-19T15:10:25.511Z,46.30
2018-07-19T15:13:06.127Z,46.80
2018-07-19T15:15:46.664Z,46.70
2018-07-19T15:18:28.339Z,46.90
2018-07-19T15:21:09.368Z,47.30
2018-07-19T15:23:50.116Z,47.90
2018-07-19T15:26:31.020Z,47.10
2018-07-19T15:29:11.864Z,47.10
2018-07-19T15:31:52.584Z,47.70
2018-07-19T15:34:34.040Z,46.80
2018-07-19T15:37:14.633Z,47.70
2018-07-19T15:39:55.570Z,47.50
2018-07-19T15:42:36.482Z,48.20
2018-07-19T15:45:17.410Z,48.40
2018-07-19T15:47:58.010Z,49.10
2018-07-19T15:50:39.082Z,48.90
2018-07-19T15:53:19.889Z,50.00
2018-07-19T15:56:00.516Z,50.10
2018-07-19T15:58:41.118Z,50.40
2018-07-19T16:01:23.186Z,50.50
2018-07-19T16:06:45.258Z,51.80
2018-07-19T16:09:26.442Z,52.20
2018-07-19T16:12:06.869Z,52.60
2018-07-19T16:14:47.653Z,52.60
2018-07-19T16:17:28.697Z,52.80
2018-07-19T16:20:09.555Z,53.10
2018-07-19T16:25:30.831Z,53.10
2018-07-19T16:28:11.349Z,52.50
2018-07-19T16:30:52.122Z,51.10
2018-07-19T16:33:33.032Z,51.10
2018-07-19T16:36:13.780Z,52.40
2018-07-19T16:41:34.897Z,52.80
2018-07-19T16:44:15.388Z,53.10
2018-07-19T16:46:55.928Z,53.60
2018-07-19T16:49:37.042Z,53.90
2018-07-19T16:52:17.992Z,53.40
2018-07-19T16:54:58.685Z,53.50
2018-07-19T16:57:39.759Z,53.60
2018-07-19T17:00:20.616Z,54.20
2018-07-19T17:03:01.607Z,54.50
2018-07-19T17:05:42.110Z,54.60
2018-07-19T17:08:22.950Z,54.60
2018-07-19T17:11:04.187Z,55.20
2018-07-19T17:13:45.293Z,55.10
2018-07-19T17:19:07.304Z,54.70
2018-07-19T17:21:49.182Z,55.30
2018-07-19T17:24:29.825Z,55.90
2018-07-19T17:27:10.456Z,56.40
2018-07-19T17:29:51.283Z,56.30
2018-07-19T17:32:32.172Z,56.50
2018-07-19T17:35:13.153Z,56.30
2018-07-19T17:37:53.936Z,56.70
2018-07-19T17:40:34.911Z,57.20
2018-07-19T17:43:15.981Z,56.90
2018-07-19T17:45:56.789Z,57.00
2018-07-19T17:48:37.337Z,57.40
2018-07-19T17:51:18.113Z,57.60
2018-07-19T17:53:58.629Z,57.70
2018-07-19T17:56:39.668Z,57.40
2018-07-19T17:59:20.722Z,57.00
2018-07-19T18:02:01.750Z,57.40
2018-07-19T18:04:42.560Z,56.90
2018-07-19T18:07:23.766Z,57.00
2018-07-19T18:10:04.871Z,56.70
2018-07-19T18:12:45.448Z,56.10
2018-07-19T18:15:26.520Z,55.80
2018-07-19T18:18:08.332Z,56.30
2018-07-19T18:20:49.176Z,56.10
2018-07-19T18:23:30.008Z,56.50
2018-07-19T18:26:10.605Z,57.00
2018-07-19T18:28:51.080Z,57.30
2018-07-19T18:31:31.852Z,57.50
2018-07-19T18:34:12.720Z,57.60
2018-07-19T18:36:53.488Z,58.30
2018-07-19T18:39:34.380Z,58.40
2018-07-19T18:42:15.522Z,58.40
2018-07-19T18:44:56.328Z,58.90
2018-07-19T18:47:36.930Z,59.30
2018-07-19T18:50:17.328Z,59.20
2018-07-19T18:52:58.571Z,59.80
2018-07-19T18:55:39.797Z,59.80
2018-07-19T18:58:20.581Z,59.50
2018-07-19T19:03:41.424Z,59.20
2018-07-19T19:06:22.333Z,58.90
2018-07-19T19:09:03.979Z,58.80
2018-07-19T19:11:46.172Z,59.20
2018-07-19T19:14:27.353Z,59.90
2018-07-19T19:17:08.573Z,60.30
2018-07-19T19:19:49.320Z,60.60
2018-07-19T19:22:29.816Z,60.90
2018-07-19T19:25:10.893Z,61.30
2018-07-19T19:27:51.572Z,61.50
2018-07-19T19:30:32.471Z,62.00
2018-07-19T19:33:12.926Z,62.30
2018-07-19T19:35:53.848Z,62.10
2018-07-19T19:38:34.385Z,62.40
2018-07-19T19:41:14.931Z,62.60
2018-07-19T19:46:36.120Z,63.30
2018-07-19T19:49:23.605Z,64.10
2018-07-19T19:52:04.633Z,63.30
2018-07-19T19:54:45.184Z,64.10
2018-07-19T19:57:25.574Z,64.00
2018-07-19T20:00:06.464Z,64.20
2018-07-19T20:02:47.661Z,64.80
2018-07-19T20:05:28.956Z,65.80
2018-07-19T20:08:09.937Z,65.60
2018-07-19T20:10:50.458Z,66.40
2018-07-19T20:13:31.682Z,66.30
2018-07-19T20:16:12.260Z,67.10
2018-07-19T20:18:53.072Z,67.40
2018-07-19T20:21:33.885Z,67.70
2018-07-19T20:24:14.533Z,68.60
2018-07-19T20:26:55.223Z,69.50
2018-07-19T20:29:36.139Z,69.60
2018-07-19T20:32:16.974Z,69.80
2018-07-19T20:34:57.960Z,70.50
2018-07-19T20:37:39.229Z,71.60
2018-07-19T20:40:20.597Z,71.50
2018-07-19T20:43:01.777Z,71.60
2018-07-19T20:45:42.747Z,70.00
2018-07-19T20:48:23.518Z,70.10
2018-07-19T20:51:04.272Z,71.20
2018-07-19T20:53:44.856Z,71.30
2018-07-19T20:56:26.620Z,70.60
2018-07-19T20:59:08.256Z,71.30
2018-07-19T21:01:48.704Z,72.60
2018-07-19T21:04:29.231Z,73.10
2018-07-19T21:07:10.063Z,73.80
2018-07-19T21:09:50.581Z,74.60
2018-07-19T21:15:12.048Z,75.20
2018-07-19T21:17:52.941Z,74.20
2018-07-19T21:20:33.865Z,74.00
2018-07-19T21:23:14.697Z,74.00
2018-07-19T21:25:55.108Z,74.20
2018-07-19T21:28:35.683Z,74.40
2018-07-19T21:31:16.241Z,74.60
2018-07-19T21:33:57.027Z,75.20
2018-07-19T21:36:37.940Z,75.70
2018-07-19T21:39:18.661Z,76.00
2018-07-19T21:41:59.600Z,76.30
2018-07-19T21:44:40.084Z,76.70
2018-07-19T21:47:21.042Z,77.20
2018-07-19T21:50:01.792Z,77.30
2018-07-19T21:52:42.988Z,77.50
2018-07-19T21:55:23.687Z,77.60
2018-07-19T21:58:04.440Z,78.40
2018-07-19T22:00:50.973Z,78.60
2018-07-19T22:03:31.514Z,78.70
2018-07-19T22:06:12.257Z,78.80
2018-07-19T22:08:53.903Z,79.40
2018-07-19T22:11:34.934Z,79.90
2018-07-19T22:14:16.388Z,79.70
2018-07-19T22:16:57.305Z,79.60
2018-07-19T22:19:38.336Z,79.40
2018-07-19T22:22:18.796Z,78.70
2018-07-19T22:24:59.833Z,78.90
2018-07-19T22:27:41.082Z,79.90
2018-07-19T22:30:22.285Z,79.80
2018-07-19T22:33:02.870Z,79.80
2018-07-19T22:35:43.399Z,80.40
2018-07-19T22:38:24.552Z,80.50
2018-07-19T22:41:05.735Z,80.50
2018-07-19T22:43:46.787Z,80.70
2018-07-19T22:46:27.713Z,80.80
2018-07-19T22:49:08.137Z,80.90
2018-07-19T22:51:49.116Z,81.40
2018-07-19T22:54:29.508Z,81.60
2018-07-19T22:57:10.061Z,82.00
2018-07-19T22:59:50.879Z,82.30
2018-07-19T23:02:31.325Z,82.50
2018-07-19T23:05:12.538Z,82.30
2018-07-19T23:07:53.940Z,82.50
2018-07-19T23:10:34.744Z,82.90
2018-07-19T23:13:15.962Z,83.20
2018-07-19T23:15:56.496Z,83.80
2018-07-19T23:18:37.311Z,84.10
2018-07-19T23:21:18.362Z,83.60
2018-07-19T23:26:41.250Z,83.90
2018-07-19T23:29:22.513Z,84.00
2018-07-19T23:32:03.861Z,84.00
2018-07-19T23:34:44.488Z,84.30
2018-07-19T23:37:28.561Z,84.10
2018-07-19T23:40:12.815Z,84.40
2018-07-19T23:43:57.254Z,85.00
2018-07-19T23:46:42.565Z,84.70
2018-07-19T23:49:23.068Z,85.20
2018-07-19T23:52:03.782Z,85.50
2018-07-19T23:54:44.928Z,85.70
2018-07-19T23:57:25.637Z,85.70
